createdAt,value
2023-01-01T00:00:30.928Z,32.90
2023-01-01T00:02:58.216Z,31.65
2023-01-01T00:05:25.631Z,32.30
2023-01-01T00:07:52.915Z,28.00
2023-01-01T00:10:29.132Z,29.40
2023-01-01T00:13:00.240Z,32.33
2023-01-01T00:15:28.251Z,28.38
2023-01-01T00:17:55.740Z,27.38
2023-01-01T00:20:23.408Z,25.67
2023-01-01T00:22:55.704Z,23.75
2023-01-01T00:25:23.386Z,21.50
2023-01-01T00:27:50.788Z,19.38
2023-01-01T00:30:18.084Z,22.42
2023-01-01T00:32:55.583Z,20.27
2023-01-01T00:35:27.193Z,23.30
2023-01-01T00:37:56.175Z,21.45
2023-01-01T00:40:23.488Z,22.95
2023-01-01T00:42:50.830Z,23.33
2023-01-01T00:45:21.773Z,19.10
2023-01-01T00:47:50.715Z,24.10
2023-01-01T00:50:18.197Z,19.48
2023-01-01T00:52:45.589Z,21.25
2023-01-01T00:55:12.866Z,21.88
2023-01-01T00:57:40.188Z,16.85
2023-01-01T01:00:08.263Z,19.10
2023-01-01T01:02:35.778Z,20.20
2023-01-01T01:05:04.697Z,18.13
2023-01-01T01:07:38.648Z,20.23
2023-01-01T01:10:06.463Z,20.50
2023-01-01T01:12:35.069Z,21.83
2023-01-01T01:15:02.814Z,17.38
2023-01-01T01:17:30.212Z,13.85
2023-01-01T01:19:57.511Z,14.73
2023-01-01T01:22:28.743Z,15.75
2023-01-01T01:24:57.990Z,14.80
2023-01-01T01:27:25.322Z,15.02
2023-01-01T01:29:52.735Z,14.40
2023-01-01T01:32:20.376Z,17.25
2023-01-01T01:34:47.874Z,13.13
2023-01-01T01:37:15.514Z,14.30
2023-01-01T01:39:42.898Z,13.55
2023-01-01T01:42:18.851Z,14.27
2023-01-01T01:44:59.975Z,12.15
2023-01-01T01:47:33.312Z,13.20
2023-01-01T01:50:06.696Z,9.55
2023-01-01T01:52:35.222Z,9.52
2023-01-01T01:55:03.110Z,10.27
2023-01-01T01:57:30.684Z,12.75
2023-01-01T01:59:58.700Z,10.05
2023-01-01T02:02:45.215Z,11.35
2023-01-01T02:05:13.632Z,10.07
2023-01-01T02:07:40.965Z,9.68
2023-01-01T02:10:09.635Z,8.98
2023-01-01T02:12:38.125Z,9.38
2023-01-01T02:15:06.452Z,11.93
2023-01-01T02:17:38.800Z,15.75
2023-01-01T02:20:13.200Z,8.95
2023-01-01T02:23:17.482Z,11.73
2023-01-01T02:26:00.254Z,11.50
2023-01-01T02:28:36.818Z,13.02
2023-01-01T02:31:04.624Z,11.80
2023-01-01T02:33:32.247Z,12.25
2023-01-01T02:36:04.175Z,12.88
2023-01-01T02:38:37.214Z,9.20
2023-01-01T02:41:13.491Z,9.10
2023-01-01T02:43:42.040Z,7.65
2023-01-01T02:46:11.370Z,8.02
2023-01-01T02:48:41.902Z,9.93
2023-01-01T02:51:29.305Z,10.90
2023-01-01T02:54:18.203Z,9.35
2023-01-01T02:56:48.737Z,9.15
2023-01-01T02:59:34.579Z,7.13
2023-01-01T03:02:09.329Z,12.40
2023-01-01T03:05:05.985Z,8.18
2023-01-01T03:07:39.926Z,7.95
2023-01-01T03:10:19.813Z,8.57
2023-01-01T03:13:01.484Z,8.52
2023-01-01T03:15:32.232Z,9.45
2023-01-01T03:18:03.871Z,10.23
2023-01-01T03:20:33.427Z,5.28
2023-01-01T03:23:09.230Z,8.73
2023-01-01T03:25:42.884Z,6.38
2023-01-01T03:28:13.089Z,7.57
2023-01-01T03:30:44.104Z,8.32
2023-01-01T03:33:18.071Z,9.50
2023-01-01T03:36:06.608Z,9.23
2023-01-01T03:38:42.941Z,7.30
2023-01-01T03:41:23.735Z,6.85
2023-01-01T03:44:09.604Z,9.20
2023-01-01T03:46:37.738Z,10.25
2023-01-01T03:49:06.427Z,10.27
2023-01-01T03:51:52.580Z,10.95
2023-01-01T03:54:19.861Z,7.35
2023-01-01T03:56:52.759Z,9.38
2023-01-01T03:59:29.920Z,8.50
2023-01-01T04:02:01.429Z,14.88
2023-01-01T04:04:29.209Z,10.88
2023-01-01T04:06:59.958Z,9.15
2023-01-01T04:09:37.747Z,8.40
2023-01-01T04:12:05.616Z,8.50
2023-01-01T04:14:37.918Z,11.50
2023-01-01T04:17:06.170Z,7.97
2023-01-01T04:19:33.533Z,8.32
2023-01-01T04:22:01.115Z,10.68
2023-01-01T04:24:28.399Z,7.75
2023-01-01T04:26:56.052Z,10.18
2023-01-01T04:29:23.705Z,7.43
2023-01-01T04:31:51.220Z,6.15
2023-01-01T04:34:18.573Z,9.32
2023-01-01T04:36:45.938Z,6.80
2023-01-01T04:39:13.214Z,6.72
2023-01-01T04:41:40.502Z,8.20
2023-01-01T04:44:07.761Z,7.38
2023-01-01T04:46:35.026Z,11.38
2023-01-01T04:49:02.394Z,8.38
2023-01-01T04:51:29.640Z,7.68
2023-01-01T04:53:56.904Z,8.93
2023-01-01T04:56:24.151Z,11.55
2023-01-01T04:58:51.552Z,6.90
2023-01-01T05:01:20.756Z,7.32
2023-01-01T05:03:48.547Z,8.68
2023-01-01T05:06:16.448Z,8.95
2023-01-01T05:08:45.688Z,13.65
2023-01-01T05:11:20.571Z,6.13
2023-01-01T05:13:49.957Z,8.10
2023-01-01T05:16:21.503Z,10.15
2023-01-01T05:18:49.337Z,7.82
2023-01-01T06:25:50.157Z,6.78
2023-01-01T06:28:17.502Z,8.43
2023-01-01T06:30:45.119Z,4.93
2023-01-01T06:33:12.387Z,4.88
2023-01-01T06:35:39.719Z,5.22
2023-01-01T06:38:06.948Z,6.15
2023-01-01T06:40:34.218Z,6.30
2023-01-01T06:43:01.573Z,7.95
2023-01-01T06:45:28.841Z,4.18
2023-01-01T06:47:57.382Z,8.70
2023-01-01T06:50:24.652Z,7.57
2023-01-01T06:52:51.888Z,4.97
2023-01-01T06:55:21.934Z,4.70
2023-01-01T06:57:52.355Z,6.57
2023-01-01T07:00:22.458Z,5.25
2023-01-01T07:02:49.899Z,4.10
2023-01-01T07:05:17.289Z,6.38
2023-01-01T07:07:44.553Z,4.65
2023-01-01T07:10:13.890Z,6.72
2023-01-01T07:12:41.098Z,6.68
2023-01-01T07:15:08.701Z,6.03
2023-01-01T07:17:35.918Z,6.55
2023-01-01T07:20:03.197Z,7.57
2023-01-01T07:22:30.528Z,4.65
2023-01-01T07:24:57.760Z,6.05
2023-01-01T07:27:25.228Z,6.70
2023-01-01T07:29:52.487Z,7.20
2023-01-01T07:32:19.767Z,7.45
2023-01-01T07:34:50.620Z,5.32
2023-01-01T07:37:18.228Z,5.72
2023-01-01T07:39:45.517Z,4.22
2023-01-01T07:42:12.773Z,4.78
2023-01-01T07:44:40.049Z,6.13
2023-01-01T07:47:14.475Z,6.93
2023-01-01T07:49:41.737Z,5.90
2023-01-01T07:52:09.026Z,5.43
2023-01-01T07:54:36.263Z,4.07
2023-01-01T07:57:03.541Z,6.13
2023-01-01T07:59:30.789Z,7.53
2023-01-01T08:01:58.210Z,4.57
2023-01-01T08:04:26.782Z,5.25
2023-01-01T08:06:54.769Z,4.70
2023-01-01T08:09:22.089Z,6.60
2023-01-01T08:11:51.547Z,7.32
2023-01-01T08:16:45.902Z,5.00
2023-01-01T08:19:13.158Z,6.70
2023-01-01T08:21:40.395Z,9.02
2023-01-01T08:24:07.327Z,7.28
2023-01-01T08:26:35.830Z,8.18
2023-01-01T08:29:04.584Z,4.88
2023-01-01T08:31:31.902Z,8.90
2023-01-01T08:33:59.187Z,5.75
2023-01-01T08:36:26.492Z,6.05
2023-01-01T08:38:53.868Z,5.28
2023-01-01T08:41:22.235Z,4.07
2023-01-01T08:43:49.586Z,6.75
2023-01-01T08:46:17.360Z,6.53
2023-01-01T08:48:44.660Z,6.68
2023-01-01T08:51:12.459Z,5.97
2023-01-01T08:53:40.542Z,6.72
2023-01-01T08:56:11.033Z,6.32
2023-01-01T08:58:40.414Z,8.90
2023-01-01T09:01:08.072Z,4.35
2023-01-01T09:03:35.794Z,6.50
2023-01-01T09:06:03.402Z,8.55
2023-01-01T09:08:30.682Z,8.88
2023-01-01T09:11:02.363Z,7.28
2023-01-01T09:13:29.909Z,6.85
2023-01-01T09:15:57.552Z,7.75
2023-01-01T09:18:24.963Z,9.23
2023-01-01T09:20:52.192Z,6.90
2023-01-01T09:23:19.456Z,7.22
2023-01-01T09:25:46.772Z,9.57
2023-01-01T09:28:15.841Z,5.80
2023-01-01T09:30:45.419Z,5.22
2023-01-01T09:33:12.642Z,6.10
2023-01-01T09:35:44.091Z,5.97
2023-01-01T09:38:11.364Z,9.75
2023-01-01T09:41:08.668Z,7.70
2023-01-01T09:43:38.917Z,8.15
2023-01-01T09:46:11.193Z,8.57
2023-01-01T09:48:44.936Z,6.80
2023-01-01T09:51:16.299Z,8.10
2023-01-01T09:53:52.348Z,7.43
2023-01-01T09:56:21.306Z,8.52
2023-01-01T09:58:48.670Z,8.15
2023-01-01T10:01:34.963Z,4.38
2023-01-01T10:04:27.441Z,10.90
2023-01-01T10:06:59.477Z,9.85
2023-01-01T10:09:45.528Z,7.55
2023-01-01T10:12:30.254Z,12.00
2023-01-01T10:15:03.020Z,8.18
2023-01-01T10:17:30.351Z,6.10
2023-01-01T10:19:59.625Z,6.25
2023-01-01T10:25:00.533Z,6.50
2023-01-01T10:27:30.401Z,9.50
2023-01-01T10:30:03.484Z,9.18
2023-01-01T10:32:33.166Z,5.60
2023-01-01T10:35:01.569Z,10.05
2023-01-01T10:37:32.143Z,12.02
2023-01-01T10:39:59.463Z,9.73
2023-01-01T10:42:26.831Z,5.00
2023-01-01T10:44:54.482Z,9.35
2023-01-01T10:47:29.128Z,10.13
2023-01-01T10:49:57.445Z,8.07
2023-01-01T10:52:31.630Z,7.78
2023-01-01T10:55:00.176Z,6.80
2023-01-01T10:57:27.383Z,8.60
2023-01-01T10:59:55.096Z,9.55
2023-01-01T11:02:22.598Z,8.90
2023-01-01T11:04:50.808Z,9.25
2023-01-01T11:07:29.148Z,6.82
2023-01-01T11:10:04.626Z,8.02
2023-01-01T11:13:04.203Z,6.97
2023-01-01T11:15:44.391Z,9.82
2023-01-01T11:18:35.951Z,7.85
2023-01-01T11:21:04.996Z,11.48
2023-01-01T11:23:32.267Z,9.90
2023-01-01T11:26:00.751Z,10.55
2023-01-01T11:28:31.620Z,11.77
2023-01-01T11:31:02.321Z,12.45
2023-01-01T11:33:30.993Z,9.57
2023-01-01T11:35:58.483Z,9.20
2023-01-01T11:38:30.207Z,7.30
2023-01-01T11:41:02.874Z,9.65
2023-01-01T11:43:34.191Z,11.88
2023-01-01T11:46:01.548Z,8.18
2023-01-01T11:48:30.805Z,6.53
2023-01-01T11:50:59.198Z,8.93
2023-01-01T11:53:26.547Z,11.18
2023-01-01T11:55:58.721Z,7.72
2023-01-01T11:58:44.597Z,10.15
2023-01-01T12:01:30.676Z,9.50
2023-01-01T12:04:01.300Z,11.32
2023-01-01T12:06:33.730Z,9.57
2023-01-01T12:09:01.036Z,8.95
2023-01-01T12:11:37.325Z,12.57
2023-01-01T12:14:32.775Z,7.88
2023-01-01T12:17:05.569Z,10.02
2023-01-01T12:19:42.006Z,8.82
2023-01-01T12:22:14.281Z,8.73
2023-01-01T12:24:41.543Z,8.45
2023-01-01T12:27:27.320Z,12.77
2023-01-01T12:30:01.577Z,8.82
2023-01-01T12:32:49.458Z,10.05
2023-01-01T12:35:19.893Z,8.63
2023-01-01T12:37:58.745Z,8.82
2023-01-01T12:40:35.157Z,6.28
2023-01-01T12:43:05.345Z,8.10
2023-01-01T12:45:35.746Z,11.43
2023-01-01T12:48:03.070Z,8.85
2023-01-01T12:50:36.566Z,9.48
2023-01-01T12:53:21.112Z,7.43
2023-01-01T12:56:04.769Z,10.18
2023-01-01T12:58:41.383Z,8.60
2023-01-01T13:01:11.768Z,10.35
2023-01-01T13:03:56.336Z,7.13
2023-01-01T13:06:28.591Z,8.20
2023-01-01T13:09:00.663Z,7.70
2023-01-01T13:11:29.181Z,12.38
2023-01-01T13:13:56.443Z,9.73
2023-01-01T13:16:34.500Z,8.82
2023-01-01T13:19:03.108Z,10.23
2023-01-01T13:21:32.551Z,13.35
2023-01-01T13:26:26.972Z,10.45
2023-01-01T13:29:17.352Z,10.23
2023-01-01T13:31:44.687Z,10.05
2023-01-01T13:34:30.265Z,8.82
2023-01-01T13:37:17.198Z,8.13
2023-01-01T13:40:03.013Z,9.80
2023-01-01T13:42:51.867Z,9.82
2023-01-01T13:46:09.481Z,11.70
2023-01-01T13:48:36.008Z,9.02
2023-01-01T13:54:51.757Z,10.68
2023-01-01T13:57:19.026Z,11.95
2023-01-01T13:59:46.207Z,11.23
2023-01-01T14:02:49.386Z,10.82
2023-01-01T14:05:19.009Z,14.45
2023-01-01T14:07:53.540Z,10.10
2023-01-01T14:10:28.697Z,8.38
2023-01-01T14:12:57.975Z,12.13
2023-01-01T14:17:53.547Z,11.25
2023-01-01T14:20:23.423Z,7.38
2023-01-01T14:22:52.009Z,8.27
2023-01-01T14:25:24.621Z,8.85
2023-01-01T14:27:51.966Z,10.02
2023-01-01T14:30:19.600Z,8.32
2023-01-01T14:32:46.971Z,10.05
2023-01-01T14:35:15.876Z,9.90
2023-01-01T14:37:44.754Z,9.10
2023-01-01T14:40:29.188Z,12.15
2023-01-01T14:43:02.481Z,14.73
2023-01-01T14:45:30.893Z,8.68
2023-01-01T14:47:58.467Z,11.38
2023-01-01T14:50:30.063Z,11.82
2023-01-01T14:52:59.324Z,13.73
2023-01-01T14:57:58.483Z,10.68
2023-01-01T15:00:27.580Z,10.63
2023-01-01T15:02:55.101Z,10.70
2023-01-01T15:05:34.847Z,9.70
2023-01-01T15:08:03.802Z,10.02
2023-01-01T15:10:33.581Z,9.93
2023-01-01T15:13:01.047Z,13.02
2023-01-01T15:15:40.088Z,13.32
2023-01-01T15:18:08.270Z,19.70
2023-01-01T15:20:36.124Z,12.38
2023-01-01T15:23:10.080Z,13.45
2023-01-01T15:25:38.407Z,13.43
2023-01-01T15:28:05.775Z,10.27
2023-01-01T15:30:35.163Z,12.65
2023-01-01T15:33:09.997Z,13.13
2023-01-01T15:35:38.175Z,10.73
2023-01-01T15:38:15.233Z,11.80
2023-01-01T15:40:46.563Z,12.30
2023-01-01T15:43:23.657Z,11.40
2023-01-01T15:45:53.697Z,11.38
2023-01-01T15:48:22.227Z,15.10
2023-01-01T15:50:49.462Z,11.35
2023-01-01T15:53:20.843Z,10.65
2023-01-01T15:55:58.945Z,8.80
2023-01-01T15:58:45.592Z,8.65
2023-01-01T16:01:20.388Z,9.60
2023-01-01T16:03:49.496Z,10.93
2023-01-01T16:06:21.435Z,12.98
2023-01-01T16:08:48.958Z,13.30
2023-01-01T16:11:16.370Z,11.82
2023-01-01T16:13:43.647Z,9.40
2023-01-01T16:16:38.175Z,9.98
2023-01-01T16:19:06.764Z,10.57
2023-01-01T16:21:34.531Z,12.77
2023-01-01T16:24:01.855Z,13.30
2023-01-01T16:26:29.125Z,10.95
2023-01-01T16:28:56.446Z,11.98
2023-01-01T16:31:28.611Z,9.52
2023-01-01T16:33:57.467Z,8.20
2023-01-01T16:36:24.856Z,9.10
2023-01-01T16:38:52.184Z,12.68
2023-01-01T16:41:19.754Z,10.55
2023-01-01T16:43:47.951Z,12.60
2023-01-01T16:46:15.651Z,9.73
2023-01-01T16:48:43.536Z,11.25
2023-01-01T16:51:19.948Z,11.02
2023-01-01T16:53:47.699Z,9.77
2023-01-01T16:56:15.365Z,10.85
2023-01-01T16:58:53.245Z,11.38
2023-01-01T17:01:23.307Z,10.52
2023-01-01T17:03:50.901Z,14.70
2023-01-01T17:06:18.468Z,15.88
2023-01-01T17:08:45.673Z,12.30
2023-01-01T17:11:15.082Z,11.35
2023-01-01T17:13:43.146Z,14.30
2023-01-01T17:16:11.885Z,10.32
2023-01-01T17:19:13.257Z,12.68
2023-01-01T17:21:26.503Z,14.57
2023-01-01T17:23:53.846Z,11.23
2023-01-01T17:26:22.483Z,11.80
2023-01-01T17:28:58.048Z,12.93
2023-01-01T17:31:28.954Z,12.82
2023-01-01T17:33:56.997Z,10.85
2023-01-01T17:36:27.041Z,12.93
2023-01-01T17:38:54.498Z,11.10
2023-01-01T17:41:22.037Z,10.27
2023-01-01T17:43:50.669Z,11.18
2023-01-01T17:46:19.218Z,9.98
2023-01-01T17:48:47.064Z,14.95
2023-01-01T17:51:15.125Z,13.98
2023-01-01T17:53:42.624Z,13.02
2023-01-01T17:56:14.478Z,13.00
2023-01-01T17:58:42.309Z,15.48
2023-01-01T18:01:22.084Z,9.75
2023-01-01T18:03:55.361Z,14.95
2023-01-01T18:06:22.930Z,13.95
2023-01-01T18:08:50.226Z,12.55
2023-01-01T18:11:18.956Z,9.00
2023-01-01T18:13:47.328Z,11.75
2023-01-01T18:16:16.135Z,14.38
2023-01-01T18:18:43.636Z,10.63
2023-01-01T18:21:14.420Z,10.05
2023-01-01T18:23:42.061Z,10.50
2023-01-01T18:26:10.560Z,14.48
2023-01-01T18:28:37.942Z,10.40
2023-01-01T18:31:10.183Z,9.10
2023-01-01T18:33:37.831Z,13.18
2023-01-01T18:36:06.071Z,10.23
2023-01-01T18:38:33.610Z,12.80
2023-01-01T18:41:20.198Z,11.00
2023-01-01T18:43:47.731Z,10.60
2023-01-01T18:46:14.966Z,11.95
2023-01-01T18:48:42.806Z,12.88
2023-01-01T18:51:15.030Z,10.25
2023-01-01T18:53:42.406Z,12.30
2023-01-01T18:56:13.612Z,10.45
2023-01-01T18:58:42.988Z,12.80
2023-01-01T19:01:15.044Z,18.58
2023-01-01T19:03:42.642Z,16.33
2023-01-01T19:06:26.012Z,17.20
2023-01-01T19:09:00.390Z,17.88
2023-01-01T19:11:27.701Z,14.25
2023-01-01T19:14:02.388Z,15.20
2023-01-01T19:16:30.501Z,14.68
2023-01-01T19:19:01.786Z,16.73
2023-01-01T19:21:29.155Z,13.60
2023-01-01T19:23:57.550Z,14.82
2023-01-01T19:26:27.669Z,13.50
2023-01-01T19:29:03.036Z,14.45
2023-01-01T19:31:30.445Z,16.25
2023-01-01T19:33:57.832Z,13.65
2023-01-01T19:36:25.158Z,18.45
2023-01-01T19:38:52.454Z,12.18
2023-01-01T19:41:19.757Z,11.68
2023-01-01T19:43:47.053Z,10.50
2023-01-01T19:46:14.315Z,12.20
2023-01-01T19:48:41.634Z,10.05
2023-01-01T19:51:09.025Z,11.55
2023-01-01T19:53:36.336Z,12.73
2023-01-01T19:56:03.630Z,12.02
2023-01-01T19:58:30.861Z,11.82
2023-01-01T20:00:58.323Z,10.40
2023-01-01T20:03:56.901Z,11.70
2023-01-01T20:06:13.376Z,11.30
2023-01-01T20:08:40.633Z,11.75
2023-01-01T20:11:08.333Z,8.88
2023-01-01T20:13:37.703Z,10.15
2023-01-01T20:16:05.377Z,10.85
2023-01-01T20:18:32.924Z,10.45
2023-01-01T20:21:23.715Z,10.43
2023-01-01T20:23:54.722Z,9.13
2023-01-01T20:26:23.693Z,10.55
2023-01-01T20:29:09.867Z,10.07
2023-01-01T20:31:39.383Z,10.75
2023-01-01T20:34:06.744Z,9.30
2023-01-01T20:36:52.410Z,11.27
2023-01-01T20:39:19.784Z,8.50
2023-01-01T20:41:47.010Z,10.48
2023-01-01T20:44:14.338Z,9.73
2023-01-01T20:46:42.428Z,10.27
2023-01-01T20:49:10.988Z,8.73
2023-01-01T20:51:38.313Z,11.40
2023-01-01T20:54:05.612Z,8.25
2023-01-01T20:56:32.853Z,9.95
2023-01-01T20:59:12.386Z,7.72
2023-01-01T21:01:48.952Z,9.02
2023-01-01T21:04:16.767Z,6.93
2023-01-01T21:06:47.633Z,9.02
2023-01-01T21:09:14.953Z,8.15
2023-01-01T21:11:42.347Z,9.75
2023-01-01T21:14:10.025Z,9.10
2023-01-01T21:16:38.239Z,8.07
2023-01-01T21:19:08.144Z,8.77
2023-01-01T21:21:45.736Z,7.82
2023-01-01T21:24:17.641Z,8.65
2023-01-01T21:26:46.311Z,9.40
2023-01-01T21:29:23.731Z,10.50
2023-01-01T21:31:52.502Z,8.50
2023-01-01T21:34:40.168Z,8.95
2023-01-01T21:37:13.568Z,7.82
2023-01-01T21:39:40.956Z,8.13
2023-01-01T21:42:24.616Z,10.35
2023-01-01T21:44:57.370Z,9.38
2023-01-01T21:47:25.195Z,7.70
2023-01-01T21:49:56.353Z,8.23
2023-01-01T21:52:25.670Z,7.20
2023-01-01T21:57:22.815Z,8.50
2023-01-01T21:59:50.921Z,8.07
2023-01-01T22:02:28.724Z,8.55
2023-01-01T22:04:56.196Z,10.50
2023-01-01T22:10:34.491Z,8.02
2023-01-01T22:13:01.912Z,8.32
2023-01-01T22:15:41.873Z,9.10
2023-01-01T22:18:12.144Z,7.85
2023-01-01T22:20:41.132Z,9.32
2023-01-01T22:23:20.802Z,10.63
2023-01-01T22:25:48.563Z,7.85
2023-01-01T22:28:39.065Z,8.57
2023-01-01T22:31:06.436Z,9.68
2023-01-01T22:33:40.498Z,9.68
2023-01-01T22:36:37.774Z,9.73
2023-01-01T22:39:13.316Z,9.95
2023-01-01T22:41:40.757Z,11.50
2023-01-01T22:44:08.069Z,10.82
2023-01-01T22:46:37.531Z,11.05
2023-01-01T22:49:24.597Z,13.32
2023-01-01T22:51:54.591Z,11.80
2023-01-01T22:54:21.998Z,9.98
2023-01-01T22:56:50.332Z,10.00
2023-01-01T22:59:17.588Z,13.68
2023-01-01T23:01:44.887Z,9.95
2023-01-01T23:04:12.328Z,11.13
2023-01-01T23:06:39.809Z,11.23
2023-01-01T23:09:08.413Z,10.00
2023-01-01T23:11:35.821Z,10.23
2023-01-01T23:14:21.430Z,12.60
2023-01-01T23:16:48.823Z,13.10
2023-01-01T23:19:16.321Z,12.20
2023-01-01T23:21:43.695Z,12.60
2023-01-01T23:24:13.449Z,9.68
2023-01-01T23:26:41.061Z,11.05
2023-01-01T23:29:09.774Z,9.75
2023-01-01T23:31:37.554Z,11.57
2023-01-01T23:34:05.270Z,13.38
2023-01-01T23:36:32.745Z,12.05
2023-01-01T23:39:00.031Z,13.07
2023-01-01T23:41:27.303Z,12.73
2023-01-01T23:43:54.527Z,13.15
2023-01-01T23:46:22.150Z,11.85
2023-01-01T23:48:49.643Z,13.55
2023-01-01T23:51:17.837Z,9.57
2023-01-01T23:53:45.366Z,9.82
2023-01-01T23:56:12.708Z,11.13
2023-01-01T23:58:39.902Z,11.95
